sensor_id;sensor_type;location;lat;lon;timestamp;temperature;humidity
71942;DHT22;59997;53.300;-6.260;2023-02-18T00:01:15;11.57;82.08
71942;DHT22;59997;53.300;-6.260;2023-02-18T00:03:41;11.54;82.16
71942;DHT22;59997;53.300;-6.260;2023-02-18T00:06:26;11.42;82.69
71942;DHT22;59997;53.300;-6.260;2023-02-18T00:08:52;11.52;82.54
71942;DHT22;59997;53.300;-6.260;2023-02-18T00:11:20;11.46;82.65
71942;DHT22;59997;53.300;-6.260;2023-02-18T00:13:53;11.42;82.75
71942;DHT22;59997;53.300;-6.260;2023-02-18T00:16:20;11.39;82.92
71942;DHT22;59997;53.300;-6.260;2023-02-18T00:18:46;11.39;82.96
71942;DHT22;59997;53.300;-6.260;2023-02-18T00:21:11;11.40;82.94
71942;DHT22;59997;53.300;-6.260;2023-02-18T00:23:37;11.33;83.16
71942;DHT22;59997;53.300;-6.260;2023-02-18T00:26:06;11.35;83.19
71942;DHT22;59997;53.300;-6.260;2023-02-18T00:28:32;11.36;83.18
71942;DHT22;59997;53.300;-6.260;2023-02-18T00:30:57;11.43;83.04
71942;DHT22;59997;53.300;-6.260;2023-02-18T00:33:23;11.40;83.21
71942;DHT22;59997;53.300;-6.260;2023-02-18T00:35:48;11.35;83.62
71942;DHT22;59997;53.300;-6.260;2023-02-18T00:38:14;11.19;84.19
71942;DHT22;59997;53.300;-6.260;2023-02-18T00:40:40;11.14;84.46
71942;DHT22;59997;53.300;-6.260;2023-02-18T00:43:06;11.12;84.52
71942;DHT22;59997;53.300;-6.260;2023-02-18T00:45:32;11.11;84.45
71942;DHT22;59997;53.300;-6.260;2023-02-18T00:47:57;11.18;84.27
71942;DHT22;59997;53.300;-6.260;2023-02-18T00:50:23;11.25;84.11
71942;DHT22;59997;53.300;-6.260;2023-02-18T00:52:48;11.22;84.33
71942;DHT22;59997;53.300;-6.260;2023-02-18T00:55:14;11.28;84.01
71942;DHT22;59997;53.300;-6.260;2023-02-18T00:57:39;11.28;84.02
71942;DHT22;59997;53.300;-6.260;2023-02-18T01:00:08;11.26;84.18
71942;DHT22;59997;53.300;-6.260;2023-02-18T01:02:34;11.21;84.48
71942;DHT22;59997;53.300;-6.260;2023-02-18T01:05:00;11.22;84.50
71942;DHT22;59997;53.300;-6.260;2023-02-18T01:07:25;11.23;84.44
71942;DHT22;59997;53.300;-6.260;2023-02-18T01:09:51;11.29;84.39
71942;DHT22;59997;53.300;-6.260;2023-02-18T01:12:17;11.35;84.37
71942;DHT22;59997;53.300;-6.260;2023-02-18T01:14:42;11.46;84.40
71942;DHT22;59997;53.300;-6.260;2023-02-18T01:17:08;11.37;84.75
71942;DHT22;59997;53.300;-6.260;2023-02-18T01:19:33;11.16;85.26
71942;DHT22;59997;53.300;-6.260;2023-02-18T01:21:59;11.08;85.45
71942;DHT22;59997;53.300;-6.260;2023-02-18T01:24:25;11.10;85.47
71942;DHT22;59997;53.300;-6.260;2023-02-18T01:26:50;11.07;85.49
71942;DHT22;59997;53.300;-6.260;2023-02-18T01:29:16;11.18;85.24
71942;DHT22;59997;53.300;-6.260;2023-02-18T01:31:41;11.21;85.24
71942;DHT22;59997;53.300;-6.260;2023-02-18T01:34:06;11.22;85.41
71942;DHT22;59997;53.300;-6.260;2023-02-18T01:36:32;11.19;85.51
71942;DHT22;59997;53.300;-6.260;2023-02-18T01:38:57;11.16;85.66
71942;DHT22;59997;53.300;-6.260;2023-02-18T01:41:24;11.10;85.85
71942;DHT22;59997;53.300;-6.260;2023-02-18T01:44:10;11.01;86.14
71942;DHT22;59997;53.300;-6.260;2023-02-18T01:46:36;11.00;86.18
71942;DHT22;59997;53.300;-6.260;2023-02-18T01:49:01;11.01;86.16
71942;DHT22;59997;53.300;-6.260;2023-02-18T01:51:33;11.05;86.12
71942;DHT22;59997;53.300;-6.260;2023-02-18T01:54:14;11.02;86.15
71942;DHT22;59997;53.300;-6.260;2023-02-18T01:56:52;11.10;86.18
71942;DHT22;59997;53.300;-6.260;2023-02-18T01:59:25;11.12;86.30
71942;DHT22;59997;53.300;-6.260;2023-02-18T02:01:52;11.08;86.84
71942;DHT22;59997;53.300;-6.260;2023-02-18T02:04:18;11.00;87.00
71942;DHT22;59997;53.300;-6.260;2023-02-18T02:06:44;11.01;86.97
71942;DHT22;59997;53.300;-6.260;2023-02-18T02:09:14;11.02;86.93
71942;DHT22;59997;53.300;-6.260;2023-02-18T02:23:07;11.19;86.80
71942;DHT22;59997;53.300;-6.260;2023-02-18T02:31:33;11.36;86.39
71942;DHT22;59997;53.300;-6.260;2023-02-18T02:34:23;11.44;86.11
71942;DHT22;59997;53.300;-6.260;2023-02-18T02:42:24;11.47;85.89
71942;DHT22;59997;53.300;-6.260;2023-02-18T02:44:57;11.39;85.89
71942;DHT22;59997;53.300;-6.260;2023-02-18T02:47:40;11.40;85.73
71942;DHT22;59997;53.300;-6.260;2023-02-18T02:50:13;11.47;85.54
71942;DHT22;59997;53.300;-6.260;2023-02-18T02:52:47;11.53;85.52
71942;DHT22;59997;53.300;-6.260;2023-02-18T02:55:14;11.64;85.71
71942;DHT22;59997;53.300;-6.260;2023-02-18T03:00:11;11.63;86.40
71942;DHT22;59997;53.300;-6.260;2023-02-18T03:02:58;11.57;86.98
71942;DHT22;59997;53.300;-6.260;2023-02-18T03:09:03;11.40;88.23
71942;DHT22;59997;53.300;-6.260;2023-02-18T03:11:42;11.37;88.49
71942;DHT22;59997;53.300;-6.260;2023-02-18T03:17:44;11.05;88.25
71942;DHT22;59997;53.300;-6.260;2023-02-18T03:20:22;10.84;88.52
71942;DHT22;59997;53.300;-6.260;2023-02-18T03:22:50;10.76;89.07
71942;DHT22;59997;53.300;-6.260;2023-02-18T03:25:18;10.80;88.80
71942;DHT22;59997;53.300;-6.260;2023-02-18T03:27:52;10.77;89.42
71942;DHT22;59997;53.300;-6.260;2023-02-18T03:30:22;10.76;89.87
71942;DHT22;59997;53.300;-6.260;2023-02-18T03:32:54;10.64;90.13
71942;DHT22;59997;53.300;-6.260;2023-02-18T03:35:21;10.66;89.69
71942;DHT22;59997;53.300;-6.260;2023-02-18T03:37:59;10.67;89.20
71942;DHT22;59997;53.300;-6.260;2023-02-18T03:40:28;10.52;89.37
71942;DHT22;59997;53.300;-6.260;2023-02-18T03:42:56;10.56;89.14
71942;DHT22;59997;53.300;-6.260;2023-02-18T03:45:21;10.49;89.01
71942;DHT22;59997;53.300;-6.260;2023-02-18T03:47:47;10.50;88.85
71942;DHT22;59997;53.300;-6.260;2023-02-18T03:50:12;10.60;88.45
71942;DHT22;59997;53.300;-6.260;2023-02-18T03:52:38;10.63;88.29
71942;DHT22;59997;53.300;-6.260;2023-02-18T03:55:04;10.64;88.12
71942;DHT22;59997;53.300;-6.260;2023-02-18T03:57:29;10.66;87.81
71942;DHT22;59997;53.300;-6.260;2023-02-18T03:59:55;10.73;87.69
71942;DHT22;59997;53.300;-6.260;2023-02-18T04:02:20;10.69;87.57
71942;DHT22;59997;53.300;-6.260;2023-02-18T04:04:46;10.45;86.68
71942;DHT22;59997;53.300;-6.260;2023-02-18T04:07:11;10.28;87.31
71942;DHT22;59997;53.300;-6.260;2023-02-18T04:09:37;10.22;87.03
71942;DHT22;59997;53.300;-6.260;2023-02-18T04:12:02;10.15;87.35
71942;DHT22;59997;53.300;-6.260;2023-02-18T04:14:28;10.12;87.57
71942;DHT22;59997;53.300;-6.260;2023-02-18T04:16:53;10.09;87.51
71942;DHT22;59997;53.300;-6.260;2023-02-18T04:19:19;10.02;87.55
71942;DHT22;59997;53.300;-6.260;2023-02-18T04:21:44;10.00;87.46
71942;DHT22;59997;53.300;-6.260;2023-02-18T04:24:10;9.98;87.75
71942;DHT22;59997;53.300;-6.260;2023-02-18T04:26:35;9.91;87.79
71942;DHT22;59997;53.300;-6.260;2023-02-18T04:29:00;9.91;87.99
71942;DHT22;59997;53.300;-6.260;2023-02-18T04:31:26;9.98;88.16
71942;DHT22;59997;53.300;-6.260;2023-02-18T04:33:51;10.05;88.00
71942;DHT22;59997;53.300;-6.260;2023-02-18T04:36:17;10.17;88.13
71942;DHT22;59997;53.300;-6.260;2023-02-18T04:38:42;10.12;88.36
71942;DHT22;59997;53.300;-6.260;2023-02-18T04:41:08;10.18;87.89
71942;DHT22;59997;53.300;-6.260;2023-02-18T04:43:33;10.25;87.88
71942;DHT22;59997;53.300;-6.260;2023-02-18T04:45:59;10.24;88.01
71942;DHT22;59997;53.300;-6.260;2023-02-18T04:48:24;10.17;88.29
71942;DHT22;59997;53.300;-6.260;2023-02-18T04:50:51;10.09;88.34
71942;DHT22;59997;53.300;-6.260;2023-02-18T04:53:16;9.98;88.63
71942;DHT22;59997;53.300;-6.260;2023-02-18T04:55:41;9.95;88.64
71942;DHT22;59997;53.300;-6.260;2023-02-18T04:58:07;9.89;88.60
71942;DHT22;59997;53.300;-6.260;2023-02-18T05:00:34;9.87;88.17
71942;DHT22;59997;53.300;-6.260;2023-02-18T05:02:59;9.93;87.58
71942;DHT22;59997;53.300;-6.260;2023-02-18T05:05:25;9.89;87.44
71942;DHT22;59997;53.300;-6.260;2023-02-18T05:07:50;9.79;87.39
71942;DHT22;59997;53.300;-6.260;2023-02-18T05:10:16;9.94;86.55
71942;DHT22;59997;53.300;-6.260;2023-02-18T05:12:42;9.93;86.62
71942;DHT22;59997;53.300;-6.260;2023-02-18T05:15:08;9.83;86.80
71942;DHT22;59997;53.300;-6.260;2023-02-18T05:17:34;9.87;86.81
71942;DHT22;59997;53.300;-6.260;2023-02-18T05:20:00;9.84;86.93
71942;DHT22;59997;53.300;-6.260;2023-02-18T05:22:25;9.82;87.09
71942;DHT22;59997;53.300;-6.260;2023-02-18T05:24:51;9.86;86.93
71942;DHT22;59997;53.300;-6.260;2023-02-18T05:27:16;9.79;86.70
71942;DHT22;59997;53.300;-6.260;2023-02-18T05:29:42;9.80;86.27
71942;DHT22;59997;53.300;-6.260;2023-02-18T05:32:07;9.76;86.10
71942;DHT22;59997;53.300;-6.260;2023-02-18T05:34:32;9.82;85.57
71942;DHT22;59997;53.300;-6.260;2023-02-18T05:36:58;9.89;85.27
71942;DHT22;59997;53.300;-6.260;2023-02-18T05:39:23;9.73;85.49
71942;DHT22;59997;53.300;-6.260;2023-02-18T05:41:49;9.63;85.57
71942;DHT22;59997;53.300;-6.260;2023-02-18T05:44:14;9.79;84.42
71942;DHT22;59997;53.300;-6.260;2023-02-18T05:46:56;9.84;83.98
71942;DHT22;59997;53.300;-6.260;2023-02-18T05:49:22;9.91;83.44
71942;DHT22;59997;53.300;-6.260;2023-02-18T05:51:48;9.84;83.52
71942;DHT22;59997;53.300;-6.260;2023-02-18T05:54:13;9.93;83.21
71942;DHT22;59997;53.300;-6.260;2023-02-18T05:56:39;10.01;82.63
71942;DHT22;59997;53.300;-6.260;2023-02-18T05:59:04;10.09;82.27
71942;DHT22;59997;53.300;-6.260;2023-02-18T06:01:31;10.00;82.59
71942;DHT22;59997;53.300;-6.260;2023-02-18T06:03:56;10.04;82.82
71942;DHT22;59997;53.300;-6.260;2023-02-18T06:06:22;10.01;82.80
71942;DHT22;59997;53.300;-6.260;2023-02-18T06:08:47;10.08;82.56
71942;DHT22;59997;53.300;-6.260;2023-02-18T06:11:13;10.15;82.43
71942;DHT22;59997;53.300;-6.260;2023-02-18T06:13:38;10.05;82.99
71942;DHT22;59997;53.300;-6.260;2023-02-18T06:16:04;9.93;83.46
71942;DHT22;59997;53.300;-6.260;2023-02-18T06:18:30;10.02;83.32
71942;DHT22;59997;53.300;-6.260;2023-02-18T06:20:55;10.00;83.48
71942;DHT22;59997;53.300;-6.260;2023-02-18T06:23:20;10.02;83.79
71942;DHT22;59997;53.300;-6.260;2023-02-18T06:25:47;9.93;84.11
71942;DHT22;59997;53.300;-6.260;2023-02-18T06:28:13;9.80;84.70
71942;DHT22;59997;53.300;-6.260;2023-02-18T06:30:39;9.80;84.67
71942;DHT22;59997;53.300;-6.260;2023-02-18T06:33:04;9.66;84.93
71942;DHT22;59997;53.300;-6.260;2023-02-18T06:35:30;9.72;85.05
71942;DHT22;59997;53.300;-6.260;2023-02-18T06:37:55;9.63;85.17
71942;DHT22;59997;53.300;-6.260;2023-02-18T06:40:21;9.70;85.13
71942;DHT22;59997;53.300;-6.260;2023-02-18T06:42:46;9.72;85.35
71942;DHT22;59997;53.300;-6.260;2023-02-18T06:45:12;9.76;84.97
71942;DHT22;59997;53.300;-6.260;2023-02-18T06:47:38;9.93;84.45
71942;DHT22;59997;53.300;-6.260;2023-02-18T06:50:04;9.95;84.48
71942;DHT22;59997;53.300;-6.260;2023-02-18T06:52:29;10.04;84.06
71942;DHT22;59997;53.300;-6.260;2023-02-18T06:54:57;10.29;83.42
71942;DHT22;59997;53.300;-6.260;2023-02-18T06:57:23;10.19;83.69
71942;DHT22;59997;53.300;-6.260;2023-02-18T06:59:48;10.19;83.81
71942;DHT22;59997;53.300;-6.260;2023-02-18T07:02:14;10.32;83.39
71942;DHT22;59997;53.300;-6.260;2023-02-18T07:04:39;10.26;83.73
71942;DHT22;59997;53.300;-6.260;2023-02-18T07:07:05;10.24;83.63
71942;DHT22;59997;53.300;-6.260;2023-02-18T07:09:30;10.15;83.86
71942;DHT22;59997;53.300;-6.260;2023-02-18T07:11:56;10.15;84.12
71942;DHT22;59997;53.300;-6.260;2023-02-18T07:14:21;10.18;84.18
71942;DHT22;59997;53.300;-6.260;2023-02-18T07:16:48;10.15;84.45
71942;DHT22;59997;53.300;-6.260;2023-02-18T07:19:14;10.17;84.50
71942;DHT22;59997;53.300;-6.260;2023-02-18T07:21:39;10.05;84.86
71942;DHT22;59997;53.300;-6.260;2023-02-18T07:24:05;10.08;84.94
71942;DHT22;59997;53.300;-6.260;2023-02-18T07:26:31;10.08;85.01
71942;DHT22;59997;53.300;-6.260;2023-02-18T07:28:56;10.07;85.15
71942;DHT22;59997;53.300;-6.260;2023-02-18T07:31:21;10.08;85.17
71942;DHT22;59997;53.300;-6.260;2023-02-18T07:33:47;10.15;85.01
71942;DHT22;59997;53.300;-6.260;2023-02-18T07:36:12;10.11;84.95
71942;DHT22;59997;53.300;-6.260;2023-02-18T07:38:38;10.02;85.06
71942;DHT22;59997;53.300;-6.260;2023-02-18T07:41:03;10.08;84.87
71942;DHT22;59997;53.300;-6.260;2023-02-18T07:43:29;10.22;84.70
71942;DHT22;59997;53.300;-6.260;2023-02-18T07:45:54;10.21;84.80
71942;DHT22;59997;53.300;-6.260;2023-02-18T07:48:20;10.19;85.08
71942;DHT22;59997;53.300;-6.260;2023-02-18T07:50:45;10.19;85.33
71942;DHT22;59997;53.300;-6.260;2023-02-18T07:53:14;10.17;85.76
71942;DHT22;59997;53.300;-6.260;2023-02-18T07:55:40;10.14;86.26
71942;DHT22;59997;53.300;-6.260;2023-02-18T07:58:25;10.07;86.57
71942;DHT22;59997;53.300;-6.260;2023-02-18T08:00:52;10.00;86.60
71942;DHT22;59997;53.300;-6.260;2023-02-18T08:03:20;10.00;86.71
71942;DHT22;59997;53.300;-6.260;2023-02-18T08:05:50;9.91;86.74
71942;DHT22;59997;53.300;-6.260;2023-02-18T08:08:18;9.93;86.58
71942;DHT22;59997;53.300;-6.260;2023-02-18T08:10:49;10.01;86.04
71942;DHT22;59997;53.300;-6.260;2023-02-18T08:13:15;10.08;85.67
71942;DHT22;59997;53.300;-6.260;2023-02-18T08:15:41;10.15;85.16
71942;DHT22;59997;53.300;-6.260;2023-02-18T08:18:07;10.11;85.18
71942;DHT22;59997;53.300;-6.260;2023-02-18T08:20:36;10.15;84.89
71942;DHT22;59997;53.300;-6.260;2023-02-18T08:23:03;10.08;85.05
71942;DHT22;59997;53.300;-6.260;2023-02-18T08:25:29;10.12;84.75
71942;DHT22;59997;53.300;-6.260;2023-02-18T08:27:54;10.15;84.61
71942;DHT22;59997;53.300;-6.260;2023-02-18T08:30:20;10.12;84.62
71942;DHT22;59997;53.300;-6.260;2023-02-18T08:32:45;10.08;84.56
71942;DHT22;59997;53.300;-6.260;2023-02-18T08:35:11;10.08;84.22
71942;DHT22;59997;53.300;-6.260;2023-02-18T08:37:36;10.24;84.07
71942;DHT22;59997;53.300;-6.260;2023-02-18T08:40:03;10.31;83.48
71942;DHT22;59997;53.300;-6.260;2023-02-18T08:42:29;10.39;83.59
71942;DHT22;59997;53.300;-6.260;2023-02-18T08:44:54;10.55;82.86
71942;DHT22;59997;53.300;-6.260;2023-02-18T08:47:20;10.67;82.79
71942;DHT22;59997;53.300;-6.260;2023-02-18T08:49:45;10.70;82.41
71942;DHT22;59997;53.300;-6.260;2023-02-18T08:52:11;10.60;82.57
71942;DHT22;59997;53.300;-6.260;2023-02-18T08:54:36;10.56;82.57
71942;DHT22;59997;53.300;-6.260;2023-02-18T08:57:02;10.57;82.63
71942;DHT22;59997;53.300;-6.260;2023-02-18T08:59:27;10.57;82.78
71942;DHT22;59997;53.300;-6.260;2023-02-18T09:01:53;10.73;82.21
71942;DHT22;59997;53.300;-6.260;2023-02-18T09:04:18;10.88;81.32
71942;DHT22;59997;53.300;-6.260;2023-02-18T09:06:46;10.83;81.70
71942;DHT22;59997;53.300;-6.260;2023-02-18T09:09:12;10.77;82.16
71942;DHT22;59997;53.300;-6.260;2023-02-18T09:11:38;10.70;82.44
71942;DHT22;59997;53.300;-6.260;2023-02-18T09:14:04;10.74;82.17
71942;DHT22;59997;53.300;-6.260;2023-02-18T09:16:29;10.76;82.22
71942;DHT22;59997;53.300;-6.260;2023-02-18T09:18:55;10.76;82.35
71942;DHT22;59997;53.300;-6.260;2023-02-18T09:21:21;10.80;82.42
71942;DHT22;59997;53.300;-6.260;2023-02-18T09:23:48;10.83;82.27
71942;DHT22;59997;53.300;-6.260;2023-02-18T09:26:16;10.90;82.36
71942;DHT22;59997;53.300;-6.260;2023-02-18T09:28:42;10.98;81.98
71942;DHT22;59997;53.300;-6.260;2023-02-18T09:31:12;10.95;82.08
71942;DHT22;59997;53.300;-6.260;2023-02-18T09:33:43;10.88;81.99
71942;DHT22;59997;53.300;-6.260;2023-02-18T09:36:08;10.85;82.38
71942;DHT22;59997;53.300;-6.260;2023-02-18T09:38:34;10.83;82.48
71942;DHT22;59997;53.300;-6.260;2023-02-18T09:41:02;10.85;82.13
71942;DHT22;59997;53.300;-6.260;2023-02-18T09:43:33;11.04;81.59
71942;DHT22;59997;53.300;-6.260;2023-02-18T09:46:01;11.10;81.86
71942;DHT22;59997;53.300;-6.260;2023-02-18T09:48:32;11.15;80.59
71942;DHT22;59997;53.300;-6.260;2023-02-18T09:50:58;11.18;80.66
71942;DHT22;59997;53.300;-6.260;2023-02-18T09:53:24;11.30;79.81
71942;DHT22;59997;53.300;-6.260;2023-02-18T09:55:55;11.26;80.19
71942;DHT22;59997;53.300;-6.260;2023-02-18T09:58:24;11.33;80.18
71942;DHT22;59997;53.300;-6.260;2023-02-18T10:03:42;11.42;80.07
71942;DHT22;59997;53.300;-6.260;2023-02-18T10:06:17;11.39;80.19
71942;DHT22;59997;53.300;-6.260;2023-02-18T10:08:47;11.42;80.50
71942;DHT22;59997;53.300;-6.260;2023-02-18T10:11:28;11.44;80.66
71942;DHT22;59997;53.300;-6.260;2023-02-18T10:13:54;11.42;80.50
71942;DHT22;59997;53.300;-6.260;2023-02-18T10:16:21;11.40;80.75
71942;DHT22;59997;53.300;-6.260;2023-02-18T10:18:50;11.33;80.94
71942;DHT22;59997;53.300;-6.260;2023-02-18T10:21:21;11.28;80.91
71942;DHT22;59997;53.300;-6.260;2023-02-18T10:26:41;11.26;81.00
71942;DHT22;59997;53.300;-6.260;2023-02-18T10:29:18;11.36;80.98
71942;DHT22;59997;53.300;-6.260;2023-02-18T10:37:22;11.47;80.35
71942;DHT22;59997;53.300;-6.260;2023-02-18T10:51:47;11.71;80.09
71942;DHT22;59997;53.300;-6.260;2023-02-18T10:54:14;11.69;79.86
71942;DHT22;59997;53.300;-6.260;2023-02-18T10:56:48;11.81;79.68
71942;DHT22;59997;53.300;-6.260;2023-02-18T10:59:31;11.94;79.62
71942;DHT22;59997;53.300;-6.260;2023-02-18T11:02:15;12.21;78.47
71942;DHT22;59997;53.300;-6.260;2023-02-18T11:04:43;12.74;77.05
71942;DHT22;59997;53.300;-6.260;2023-02-18T11:07:20;12.92;75.82
71942;DHT22;59997;53.300;-6.260;2023-02-18T11:09:50;13.16;75.17
71942;DHT22;59997;53.300;-6.260;2023-02-18T11:12:25;13.19;74.70
71942;DHT22;59997;53.300;-6.260;2023-02-18T11:17:43;12.93;75.03
71942;DHT22;59997;53.300;-6.260;2023-02-18T11:20:22;12.87;74.91
71942;DHT22;59997;53.300;-6.260;2023-02-18T11:22:49;12.99;75.38
71942;DHT22;59997;53.300;-6.260;2023-02-18T11:25:27;12.93;75.04
71942;DHT22;59997;53.300;-6.260;2023-02-18T11:28:00;12.82;74.59
71942;DHT22;59997;53.300;-6.260;2023-02-18T11:30:41;12.77;74.68
71942;DHT22;59997;53.300;-6.260;2023-02-18T11:35:52;12.80;74.69
71942;DHT22;59997;53.300;-6.260;2023-02-18T11:38:45;12.41;75.46
71942;DHT22;59997;53.300;-6.260;2023-02-18T11:41:15;12.41;76.12
71942;DHT22;59997;53.300;-6.260;2023-02-18T11:43:44;12.34;76.19
71942;DHT22;59997;53.300;-6.260;2023-02-18T11:46:19;12.23;76.45
71942;DHT22;59997;53.300;-6.260;2023-02-18T11:48:46;12.44;76.43
71942;DHT22;59997;53.300;-6.260;2023-02-18T11:51:34;12.65;76.33
71942;DHT22;59997;53.300;-6.260;2023-02-18T11:54:22;12.91;75.69
71942;DHT22;59997;53.300;-6.260;2023-02-18T11:59:26;13.47;74.11
71942;DHT22;59997;53.300;-6.260;2023-02-18T12:02:00;13.22;74.38
71942;DHT22;59997;53.300;-6.260;2023-02-18T12:04:32;12.96;76.07
71942;DHT22;59997;53.300;-6.260;2023-02-18T12:09:37;11.92;80.59
71942;DHT22;59997;53.300;-6.260;2023-02-18T12:12:16;11.57;82.14
71942;DHT22;59997;53.300;-6.260;2023-02-18T12:14:43;11.50;81.93
71942;DHT22;59997;53.300;-6.260;2023-02-18T12:27:40;12.39;79.25
71942;DHT22;59997;53.300;-6.260;2023-02-18T12:41:34;12.51;76.10
71942;DHT22;59997;53.300;-6.260;2023-02-18T13:14:43;13.03;76.05
71942;DHT22;59997;53.300;-6.260;2023-02-18T13:17:10;13.10;76.09
71942;DHT22;59997;53.300;-6.260;2023-02-18T13:19:49;13.23;75.77
71942;DHT22;59997;53.300;-6.260;2023-02-18T13:22:19;13.54;75.86
71942;DHT22;59997;53.300;-6.260;2023-02-18T13:24:47;13.53;74.70
71942;DHT22;59997;53.300;-6.260;2023-02-18T13:35:22;12.57;78.08
71942;DHT22;59997;53.300;-6.260;2023-02-18T13:38:11;12.19;78.96
71942;DHT22;59997;53.300;-6.260;2023-02-18T13:40:40;11.94;81.05
71942;DHT22;59997;53.300;-6.260;2023-02-18T13:43:28;11.98;81.55
71942;DHT22;59997;53.300;-6.260;2023-02-18T13:48:37;12.18;81.25
71942;DHT22;59997;53.300;-6.260;2023-02-18T13:51:05;12.23;80.34
71942;DHT22;59997;53.300;-6.260;2023-02-18T13:53:35;12.26;79.44
71942;DHT22;59997;53.300;-6.260;2023-02-18T13:56:08;12.32;79.04
71942;DHT22;59997;53.300;-6.260;2023-02-18T13:58:39;12.51;77.86
71942;DHT22;59997;53.300;-6.260;2023-02-18T14:03:50;13.10;76.67
71942;DHT22;59997;53.300;-6.260;2023-02-18T14:08:47;13.16;76.97
71942;DHT22;59997;53.300;-6.260;2023-02-18T14:13:53;12.54;78.14
71942;DHT22;59997;53.300;-6.260;2023-02-18T14:16:19;12.57;78.49
71942;DHT22;59997;53.300;-6.260;2023-02-18T14:26:30;12.32;78.86
71942;DHT22;59997;53.300;-6.260;2023-02-18T14:29:00;12.30;78.77
71942;DHT22;59997;53.300;-6.260;2023-02-18T14:31:50;12.25;79.17
71942;DHT22;59997;53.300;-6.260;2023-02-18T14:42:23;12.40;78.55
71942;DHT22;59997;53.300;-6.260;2023-02-18T14:50:41;12.40;77.60
71942;DHT22;59997;53.300;-6.260;2023-02-18T14:53:13;12.36;77.74
71942;DHT22;59997;53.300;-6.260;2023-02-18T14:55:45;12.74;76.91
71942;DHT22;59997;53.300;-6.260;2023-02-18T14:58:33;13.32;75.57
71942;DHT22;59997;53.300;-6.260;2023-02-18T15:01:30;13.48;75.00
71942;DHT22;59997;53.300;-6.260;2023-02-18T15:03:56;13.44;74.15
71942;DHT22;59997;53.300;-6.260;2023-02-18T15:06:59;13.68;74.27
71942;DHT22;59997;53.300;-6.260;2023-02-18T15:09:25;13.40;74.33
71942;DHT22;59997;53.300;-6.260;2023-02-18T15:14:29;13.55;73.96
71942;DHT22;59997;53.300;-6.260;2023-02-18T15:16:57;13.09;74.92
71942;DHT22;59997;53.300;-6.260;2023-02-18T15:19:28;13.06;74.97
71942;DHT22;59997;53.300;-6.260;2023-02-18T15:21:55;12.75;75.46
71942;DHT22;59997;53.300;-6.260;2023-02-18T15:26:51;12.46;76.20
71942;DHT22;59997;53.300;-6.260;2023-02-18T15:29:21;12.39;76.09
71942;DHT22;59997;53.300;-6.260;2023-02-18T15:31:47;12.61;75.43
71942;DHT22;59997;53.300;-6.260;2023-02-18T15:36:55;12.49;75.51
71942;DHT22;59997;53.300;-6.260;2023-02-18T15:39:21;12.34;75.44
71942;DHT22;59997;53.300;-6.260;2023-02-18T15:41:55;12.22;75.22
71942;DHT22;59997;53.300;-6.260;2023-02-18T15:44:24;12.22;74.80
71942;DHT22;59997;53.300;-6.260;2023-02-18T15:46:51;12.16;75.98
71942;DHT22;59997;53.300;-6.260;2023-02-18T15:49:20;12.05;76.84
71942;DHT22;59997;53.300;-6.260;2023-02-18T15:51:46;12.04;77.37
71942;DHT22;59997;53.300;-6.260;2023-02-18T15:54:20;12.08;76.93
71942;DHT22;59997;53.300;-6.260;2023-02-18T15:56:50;11.98;76.10
71942;DHT22;59997;53.300;-6.260;2023-02-18T16:00:05;11.85;76.43
71942;DHT22;59997;53.300;-6.260;2023-02-18T16:04:36;11.53;77.10
71942;DHT22;59997;53.300;-6.260;2023-02-18T16:07:22;11.44;77.54
71942;DHT22;59997;53.300;-6.260;2023-02-18T16:09:48;11.33;77.89
71942;DHT22;59997;53.300;-6.260;2023-02-18T16:12:32;11.23;78.02
71942;DHT22;59997;53.300;-6.260;2023-02-18T16:14:58;11.23;78.14
71942;DHT22;59997;53.300;-6.260;2023-02-18T16:17:26;11.21;78.31
71942;DHT22;59997;53.300;-6.260;2023-02-18T16:20:15;11.16;78.19
71942;DHT22;59997;53.300;-6.260;2023-02-18T16:22:46;11.04;78.37
71942;DHT22;59997;53.300;-6.260;2023-02-18T16:27:51;11.02;78.46
71942;DHT22;59997;53.300;-6.260;2023-02-18T16:30:22;11.00;78.33
71942;DHT22;59997;53.300;-6.260;2023-02-18T16:32:48;11.12;77.76
71942;DHT22;59997;53.300;-6.260;2023-02-18T16:35:14;11.21;77.70
71942;DHT22;59997;53.300;-6.260;2023-02-18T16:37:42;11.15;77.77
71942;DHT22;59997;53.300;-6.260;2023-02-18T16:42:53;10.85;77.68
71942;DHT22;59997;53.300;-6.260;2023-02-18T16:45:30;10.80;77.85
71942;DHT22;59997;53.300;-6.260;2023-02-18T16:47:56;10.69;78.22
71942;DHT22;59997;53.300;-6.260;2023-02-18T16:50:22;10.64;77.91
71942;DHT22;59997;53.300;-6.260;2023-02-18T16:52:48;10.60;77.87
71942;DHT22;59997;53.300;-6.260;2023-02-18T16:55:22;10.69;77.42
71942;DHT22;59997;53.300;-6.260;2023-02-18T16:57:47;10.67;77.24
71942;DHT22;59997;53.300;-6.260;2023-02-18T17:00:15;10.64;77.26
71942;DHT22;59997;53.300;-6.260;2023-02-18T17:02:42;10.81;76.78
71942;DHT22;59997;53.300;-6.260;2023-02-18T17:05:16;10.69;77.41
71942;DHT22;59997;53.300;-6.260;2023-02-18T17:07:42;10.60;77.38
71942;DHT22;59997;53.300;-6.260;2023-02-18T17:10:07;10.55;77.75
71942;DHT22;59997;53.300;-6.260;2023-02-18T17:12:33;10.50;77.97
71942;DHT22;59997;53.300;-6.260;2023-02-18T17:14:58;10.42;78.48
71942;DHT22;59997;53.300;-6.260;2023-02-18T17:17:23;10.36;78.70
71942;DHT22;59997;53.300;-6.260;2023-02-18T17:19:49;10.22;79.17
71942;DHT22;59997;53.300;-6.260;2023-02-18T17:22:15;10.19;78.77
71942;DHT22;59997;53.300;-6.260;2023-02-18T17:24:41;10.19;79.03
71942;DHT22;59997;53.300;-6.260;2023-02-18T17:27:08;10.25;78.68
71942;DHT22;59997;53.300;-6.260;2023-02-18T17:29:35;10.18;79.08
71942;DHT22;59997;53.300;-6.260;2023-02-18T17:32:00;10.19;79.03
71942;DHT22;59997;53.300;-6.260;2023-02-18T17:34:28;10.25;79.03
71942;DHT22;59997;53.300;-6.260;2023-02-18T17:36:55;10.36;78.72
71942;DHT22;59997;53.300;-6.260;2023-02-18T17:39:21;10.38;78.66
71942;DHT22;59997;53.300;-6.260;2023-02-18T17:41:47;10.41;78.89
71942;DHT22;59997;53.300;-6.260;2023-02-18T17:44:21;10.41;78.92
71942;DHT22;59997;53.300;-6.260;2023-02-18T17:46:47;10.39;79.16
71942;DHT22;59997;53.300;-6.260;2023-02-18T17:49:14;10.35;79.56
71942;DHT22;59997;53.300;-6.260;2023-02-18T17:51:40;10.26;79.89
71942;DHT22;59997;53.300;-6.260;2023-02-18T17:54:11;10.15;80.22
71942;DHT22;59997;53.300;-6.260;2023-02-18T17:56:37;10.19;80.49
71942;DHT22;59997;53.300;-6.260;2023-02-18T17:59:03;10.18;80.36
71942;DHT22;59997;53.300;-6.260;2023-02-18T18:01:28;10.18;80.32
71942;DHT22;59997;53.300;-6.260;2023-02-18T18:03:54;10.21;80.29
71942;DHT22;59997;53.300;-6.260;2023-02-18T18:06:20;10.22;80.14
71942;DHT22;59997;53.300;-6.260;2023-02-18T18:08:46;10.19;80.36
71942;DHT22;59997;53.300;-6.260;2023-02-18T18:11:23;10.22;80.17
71942;DHT22;59997;53.300;-6.260;2023-02-18T18:13:50;10.17;80.29
71942;DHT22;59997;53.300;-6.260;2023-02-18T18:16:18;10.08;80.30
71942;DHT22;59997;53.300;-6.260;2023-02-18T18:18:44;10.08;80.15
71942;DHT22;59997;53.300;-6.260;2023-02-18T18:23:44;10.18;80.35